createdAt,value
2023-01-05T00:00:09.031Z,9.90
2023-01-05T00:02:35.564Z,9.89
2023-01-05T00:05:02.099Z,9.85
2023-01-05T00:07:28.477Z,9.84
2023-01-05T00:09:54.869Z,9.95
2023-01-05T00:12:39.896Z,9.94
2023-01-05T00:15:25.322Z,10.00
2023-01-05T00:18:10.097Z,9.99
2023-01-05T00:21:16.811Z,10.07
2023-01-05T00:23:44.892Z,10.04
2023-01-05T00:26:11.318Z,10.06
2023-01-05T00:28:37.684Z,10.10
2023-01-05T00:31:04.166Z,10.13
2023-01-05T00:33:30.576Z,10.12
2023-01-05T00:35:56.951Z,10.19
2023-01-05T00:38:23.336Z,10.14
2023-01-05T00:40:49.857Z,10.11
2023-01-05T00:43:16.254Z,10.09
2023-01-05T00:45:43.912Z,10.10
2023-01-05T00:48:10.322Z,10.16
2023-01-05T00:50:36.738Z,10.21
2023-01-05T00:53:03.152Z,10.22
2023-01-05T00:55:29.500Z,10.15
2023-01-05T00:57:56.231Z,10.17
2023-01-05T01:00:22.818Z,10.17
2023-01-05T01:02:52.106Z,10.17
2023-01-05T01:05:19.042Z,10.12
2023-01-05T01:07:45.474Z,10.19
2023-01-05T01:10:12.427Z,10.16
2023-01-05T01:12:38.962Z,10.10
2023-01-05T01:15:06.440Z,10.10
2023-01-05T01:17:34.187Z,10.19
2023-01-05T01:20:00.799Z,10.18
2023-01-05T01:22:27.589Z,10.17
2023-01-05T01:24:53.991Z,10.12
2023-01-05T01:27:20.413Z,10.14
2023-01-05T01:29:46.935Z,10.11
2023-01-05T01:32:13.288Z,10.20
2023-01-05T01:34:39.836Z,10.21
2023-01-05T01:37:06.290Z,10.23
2023-01-05T01:39:32.837Z,10.10
2023-01-05T01:41:59.279Z,10.13
2023-01-05T01:44:53.897Z,10.12
2023-01-05T01:47:29.834Z,10.12
2023-01-05T01:49:59.441Z,10.16
2023-01-05T01:52:28.273Z,10.19
2023-01-05T01:54:56.016Z,10.10
2023-01-05T01:57:24.441Z,10.12
2023-01-05T01:59:51.230Z,10.14
2023-01-05T02:02:18.645Z,10.15
2023-01-05T02:04:46.253Z,10.13
2023-01-05T02:07:15.639Z,10.22
2023-01-05T02:09:42.876Z,10.23
2023-01-05T02:12:35.236Z,10.13
2023-01-05T02:15:12.171Z,10.17
2023-01-05T02:18:06.815Z,10.17
2023-01-05T02:21:10.203Z,10.12
2023-01-05T02:24:02.709Z,10.09
2023-01-05T02:26:50.066Z,10.14
2023-01-05T02:29:31.646Z,10.10
2023-01-05T02:32:12.724Z,10.19
2023-01-05T02:35:04.107Z,10.16
2023-01-05T02:37:46.493Z,10.13
2023-01-05T02:40:21.451Z,10.09
2023-01-05T02:42:51.097Z,10.07
2023-01-05T02:45:18.006Z,10.04
2023-01-05T02:47:45.437Z,10.18
2023-01-05T02:50:26.675Z,10.13
2023-01-05T02:53:08.315Z,10.12
2023-01-05T02:55:55.155Z,10.19
2023-01-05T02:58:34.305Z,10.16
2023-01-05T03:01:06.068Z,10.07
2023-01-05T03:03:39.137Z,10.13
2023-01-05T03:06:29.512Z,10.06
2023-01-05T03:08:59.920Z,10.13
2023-01-05T03:12:13.691Z,10.17
2023-01-05T03:14:48.064Z,10.04
2023-01-05T03:17:20.391Z,10.05
2023-01-05T03:19:48.955Z,10.06
2023-01-05T03:22:42.649Z,10.10
2023-01-05T03:25:31.028Z,10.11
2023-01-05T03:28:16.116Z,9.95
2023-01-05T03:31:21.733Z,9.90
2023-01-05T03:34:16.950Z,9.89
2023-01-05T03:36:52.250Z,10.03
2023-01-05T03:39:20.224Z,9.93
2023-01-05T03:41:47.621Z,9.93
2023-01-05T03:44:14.334Z,9.84
2023-01-05T03:46:40.967Z,9.83
2023-01-05T03:49:07.493Z,9.81
2023-01-05T03:51:39.410Z,9.88
2023-01-05T03:54:07.958Z,9.86
2023-01-05T03:56:34.317Z,9.92
2023-01-05T03:59:00.826Z,9.90
2023-01-05T04:01:27.348Z,9.87
2023-01-05T04:03:54.007Z,9.90
2023-01-05T04:06:20.489Z,9.81
2023-01-05T04:08:46.949Z,9.84
2023-01-05T04:11:16.807Z,9.75
2023-01-05T04:13:43.345Z,9.79
2023-01-05T04:16:09.819Z,9.80
2023-01-05T04:18:36.303Z,9.79
2023-01-05T04:21:03.440Z,9.75
2023-01-05T04:23:29.922Z,9.80
2023-01-05T04:25:56.327Z,9.79
2023-01-05T04:28:22.681Z,9.81
2023-01-05T04:30:51.578Z,9.81
2023-01-05T04:33:18.523Z,9.86
2023-01-05T04:35:44.962Z,9.97
2023-01-05T04:38:11.764Z,9.86
2023-01-05T04:40:38.438Z,9.96
2023-01-05T04:43:05.711Z,9.96
2023-01-05T04:45:32.677Z,9.95
2023-01-05T04:47:59.071Z,9.97
2023-01-05T04:50:25.545Z,9.96
2023-01-05T04:52:51.926Z,9.94
2023-01-05T04:55:18.447Z,9.95
2023-01-05T04:57:44.947Z,9.91
2023-01-05T05:00:11.646Z,9.78
2023-01-05T05:02:38.125Z,9.77
2023-01-05T05:05:04.805Z,9.82
2023-01-05T05:07:31.213Z,9.83
2023-01-05T05:09:57.557Z,9.84
2023-01-05T05:12:23.990Z,9.84
2023-01-05T05:14:50.636Z,9.87
2023-01-05T05:17:17.336Z,9.89
2023-01-05T05:19:44.032Z,9.92
2023-01-05T05:22:11.178Z,9.89
2023-01-05T05:24:37.654Z,9.88
2023-01-05T05:27:04.175Z,9.82
2023-01-05T05:29:30.607Z,9.84
2023-01-05T05:31:57.111Z,9.90
2023-01-05T05:34:23.511Z,9.85
2023-01-05T05:36:49.949Z,9.88
2023-01-05T05:39:16.776Z,9.82
2023-01-05T05:41:43.168Z,9.85
2023-01-05T05:44:09.538Z,9.84
2023-01-05T05:46:36.010Z,9.87
2023-01-05T05:49:02.641Z,9.87
2023-01-05T05:51:29.054Z,9.88
2023-01-05T05:53:55.430Z,9.92
2023-01-05T05:56:21.820Z,9.84
2023-01-05T05:58:48.234Z,9.87
2023-01-05T06:01:14.677Z,9.88
2023-01-05T06:03:41.208Z,9.82
2023-01-05T06:06:07.845Z,9.83
2023-01-05T06:08:34.299Z,9.76
2023-01-05T06:11:00.761Z,9.67
2023-01-05T06:13:27.371Z,9.61
2023-01-05T06:15:53.846Z,9.63
2023-01-05T06:18:20.360Z,9.58
2023-01-05T06:20:46.813Z,9.54
2023-01-05T06:23:13.203Z,9.46
2023-01-05T06:25:40.217Z,9.48
2023-01-05T06:28:06.679Z,9.53
2023-01-05T06:30:33.407Z,9.57
2023-01-05T06:32:59.771Z,9.57
2023-01-05T06:35:26.233Z,9.55
2023-01-05T06:37:52.785Z,9.58
2023-01-05T06:40:19.165Z,9.60
2023-01-05T06:42:45.555Z,9.62
2023-01-05T06:45:15.029Z,9.64
2023-01-05T06:47:41.595Z,9.63
2023-01-05T06:50:08.676Z,9.67
2023-01-05T06:52:39.719Z,9.63
2023-01-05T06:55:08.431Z,9.62
2023-01-05T06:57:36.402Z,9.66
2023-01-05T07:00:09.094Z,9.77
2023-01-05T07:02:35.585Z,9.64
2023-01-05T07:05:02.189Z,9.69
2023-01-05T07:07:28.675Z,9.65
2023-01-05T07:09:55.040Z,9.69
2023-01-05T07:12:21.679Z,9.63
2023-01-05T07:14:52.902Z,9.68
2023-01-05T07:17:22.369Z,9.69
2023-01-05T07:19:48.836Z,9.69
2023-01-05T07:22:15.269Z,9.61
2023-01-05T07:24:41.638Z,9.59
2023-01-05T07:27:09.981Z,9.62
2023-01-05T07:29:37.032Z,9.62
2023-01-05T07:32:03.944Z,9.62
2023-01-05T07:34:30.339Z,9.65
2023-01-05T07:36:56.932Z,9.64
2023-01-05T07:39:23.345Z,9.69
2023-01-05T07:41:49.689Z,9.70
2023-01-05T07:44:16.275Z,9.69
2023-01-05T07:46:42.659Z,9.66
2023-01-05T07:49:09.036Z,9.71
2023-01-05T07:51:35.718Z,9.61
2023-01-05T07:54:02.074Z,9.62
2023-01-05T07:56:28.564Z,9.64
2023-01-05T07:58:54.913Z,9.63
2023-01-05T08:01:21.634Z,9.61
2023-01-05T08:03:48.248Z,9.66
2023-01-05T08:06:18.288Z,9.68
2023-01-05T08:08:45.268Z,9.59
2023-01-05T08:11:15.371Z,9.61
2023-01-05T08:14:02.825Z,9.64
2023-01-05T08:16:31.488Z,9.68
2023-01-05T08:18:59.142Z,9.71
2023-01-05T08:21:25.785Z,9.76
2023-01-05T08:23:53.223Z,9.80
2023-01-05T08:26:23.470Z,9.74
2023-01-05T08:28:50.929Z,9.79
2023-01-05T08:31:21.412Z,9.77
2023-01-05T08:33:48.129Z,9.75
2023-01-05T08:36:18.855Z,9.79
2023-01-05T08:38:49.442Z,9.75
2023-01-05T08:41:22.206Z,9.82
2023-01-05T08:43:52.997Z,9.84
2023-01-05T08:46:21.087Z,9.81
2023-01-05T08:48:55.535Z,9.76
2023-01-05T08:51:22.084Z,9.82
2023-01-05T08:53:49.078Z,9.82
2023-01-05T08:56:16.100Z,9.83
2023-01-05T08:58:43.085Z,9.88
2023-01-05T09:01:15.500Z,9.90
2023-01-05T09:03:42.355Z,9.85
2023-01-05T09:06:11.858Z,9.83
2023-01-05T09:08:40.230Z,9.88
2023-01-05T09:11:18.426Z,9.91
2023-01-05T09:13:54.725Z,9.91
2023-01-05T09:19:11.198Z,9.93
2023-01-05T09:21:39.537Z,9.91
2023-01-05T09:24:12.150Z,10.04
2023-01-05T09:26:38.948Z,9.95
2023-01-05T09:29:05.336Z,9.93
2023-01-05T09:31:31.855Z,9.93
2023-01-05T09:33:58.683Z,10.05
2023-01-05T09:36:25.739Z,10.05
2023-01-05T09:38:53.851Z,10.11
2023-01-05T09:41:25.930Z,10.16
2023-01-05T09:44:16.766Z,10.12
2023-01-05T09:46:47.421Z,10.20
2023-01-05T09:49:15.967Z,10.18
2023-01-05T09:51:43.740Z,10.11
2023-01-05T09:54:17.987Z,10.25
2023-01-05T09:59:38.884Z,10.26
2023-01-05T10:02:14.278Z,10.38
2023-01-05T10:04:41.417Z,10.30
2023-01-05T10:07:40.356Z,10.41
2023-01-05T10:10:18.632Z,10.27
2023-01-05T10:13:06.832Z,10.23
2023-01-05T10:15:48.150Z,10.08
2023-01-05T10:18:19.020Z,10.03
2023-01-05T10:21:11.679Z,10.05
2023-01-05T10:23:57.821Z,10.03
2023-01-05T10:26:45.193Z,10.12
2023-01-05T10:29:32.379Z,10.15
2023-01-05T10:32:28.211Z,10.13
2023-01-05T10:35:00.458Z,10.18
2023-01-05T10:37:33.474Z,10.20
2023-01-05T10:40:28.112Z,10.26
2023-01-05T10:43:16.457Z,10.26
2023-01-05T10:46:11.657Z,10.22
2023-01-05T10:48:34.259Z,10.33
2023-01-05T10:51:01.239Z,10.38
2023-01-05T10:53:28.977Z,10.41
2023-01-05T10:56:05.988Z,10.45
2023-01-05T10:58:36.426Z,10.38
2023-01-05T11:01:06.482Z,10.50
2023-01-05T11:04:23.983Z,10.46
2023-01-05T11:06:27.944Z,10.41
2023-01-05T11:08:55.417Z,10.44
2023-01-05T11:11:25.029Z,10.40
2023-01-05T11:13:57.209Z,10.49
2023-01-05T11:16:29.859Z,10.54
2023-01-05T11:19:12.809Z,10.55
2023-01-05T11:21:43.339Z,10.57
2023-01-05T11:24:26.482Z,10.56
2023-01-05T11:27:01.669Z,10.75
2023-01-05T11:29:29.113Z,10.74
2023-01-05T11:32:02.073Z,10.74
2023-01-05T11:34:48.821Z,10.83
2023-01-05T11:37:26.906Z,10.78
2023-01-05T11:39:56.579Z,10.88
2023-01-05T11:42:25.702Z,10.81
2023-01-05T11:45:01.417Z,10.99
2023-01-05T11:47:39.464Z,10.96
2023-01-05T11:50:10.113Z,10.98
2023-01-05T11:52:41.474Z,11.03
2023-01-05T11:55:19.644Z,11.04
2023-01-05T11:57:57.499Z,11.04
2023-01-05T12:00:30.766Z,11.12
2023-01-05T12:03:15.373Z,11.17
2023-01-05T12:05:53.262Z,11.17
2023-01-05T12:08:52.153Z,11.15
2023-01-05T12:11:21.770Z,11.08
2023-01-05T12:14:09.282Z,10.94
2023-01-05T12:17:04.232Z,10.96
2023-01-05T12:20:12.912Z,10.94
2023-01-05T12:23:18.417Z,10.86
2023-01-05T12:25:50.631Z,10.94
2023-01-05T12:28:40.962Z,11.17
2023-01-05T12:33:44.706Z,11.16
2023-01-05T12:34:38.189Z,11.15
2023-01-05T12:37:19.876Z,11.26
2023-01-05T12:40:17.398Z,11.27
2023-01-05T12:42:58.859Z,11.34
2023-01-05T12:45:50.114Z,11.45
2023-01-05T12:48:23.025Z,11.58
2023-01-05T12:50:55.298Z,11.47
2023-01-05T12:53:28.348Z,11.45
2023-01-05T12:55:58.255Z,11.22
2023-01-05T12:58:28.841Z,11.20
2023-01-05T13:00:57.545Z,11.16
2023-01-05T13:03:30.136Z,11.20
2023-01-05T13:06:05.527Z,11.22
2023-01-05T13:08:42.799Z,11.03
2023-01-05T13:11:22.129Z,11.12
2023-01-05T13:13:54.139Z,11.08
2023-01-05T13:16:22.237Z,11.11
2023-01-05T13:19:15.705Z,11.02
2023-01-05T13:21:44.608Z,11.17
2023-01-05T13:24:34.789Z,11.10
2023-01-05T13:27:02.556Z,11.07
2023-01-05T13:29:36.857Z,11.01
2023-01-05T13:32:21.938Z,11.12
2023-01-05T13:35:22.741Z,11.11
2023-01-05T13:38:21.708Z,10.94
2023-01-05T13:40:50.824Z,10.83
2023-01-05T13:43:48.342Z,10.85
2023-01-05T13:46:27.098Z,10.75
2023-01-05T13:49:15.959Z,10.71
2023-01-05T13:51:54.925Z,10.79
2023-01-05T13:54:49.196Z,10.83
2023-01-05T13:57:27.361Z,10.80
2023-01-05T14:00:08.767Z,10.79
2023-01-05T14:02:41.633Z,10.75
2023-01-05T14:05:23.890Z,10.87
2023-01-05T14:07:51.975Z,10.75
2023-01-05T14:10:28.209Z,10.79
2023-01-05T14:12:55.155Z,10.76
2023-01-05T14:15:38.590Z,10.77
2023-01-05T14:18:07.256Z,10.74
2023-01-05T14:20:53.782Z,10.77
2023-01-05T14:23:22.826Z,10.72
2023-01-05T14:26:00.434Z,10.66
2023-01-05T14:28:29.924Z,10.68
2023-01-05T14:31:11.208Z,10.66
2023-01-05T14:33:52.386Z,10.56
2023-01-05T14:36:31.031Z,10.52
2023-01-05T14:39:03.581Z,10.70
2023-01-05T14:41:31.473Z,10.60
2023-01-05T14:44:18.472Z,10.56
2023-01-05T14:46:55.909Z,10.51
2023-01-05T14:49:33.890Z,10.51
2023-01-05T14:52:02.573Z,10.48
2023-01-05T14:55:04.954Z,10.49
2023-01-05T14:57:47.018Z,10.54
2023-01-05T15:00:23.332Z,10.45
2023-01-05T15:03:11.849Z,10.42
2023-01-05T15:05:59.904Z,10.50
2023-01-05T15:08:54.584Z,10.40
2023-01-05T15:11:27.047Z,10.41
2023-01-05T15:14:29.588Z,10.46
2023-01-05T15:17:33.531Z,10.41
2023-01-05T15:20:30.486Z,10.29
2023-01-05T15:23:05.692Z,10.23
2023-01-05T15:26:02.552Z,10.16
2023-01-05T15:28:49.648Z,10.11
2023-01-05T15:31:25.260Z,10.22
2023-01-05T15:34:22.131Z,10.25
2023-01-05T15:37:10.144Z,10.23
2023-01-05T15:39:45.959Z,10.18
2023-01-05T15:42:19.307Z,10.12
2023-01-05T15:44:48.559Z,10.13
2023-01-05T15:47:17.146Z,10.14
2023-01-05T15:49:44.801Z,10.12
2023-01-05T15:52:39.028Z,10.06
2023-01-05T15:55:19.085Z,9.96
2023-01-05T15:58:00.686Z,10.03
2023-01-05T16:00:31.100Z,9.91
2023-01-05T16:02:58.116Z,9.87
2023-01-05T16:05:25.591Z,9.70
2023-01-05T16:08:11.481Z,9.57
2023-01-05T16:10:43.150Z,9.63
2023-01-05T16:13:37.880Z,9.55
2023-01-05T16:16:24.845Z,9.58
2023-01-05T16:19:03.139Z,9.65
2023-01-05T16:21:35.554Z,9.63
2023-01-05T16:24:15.196Z,9.61
2023-01-05T16:26:41.990Z,9.53
2023-01-05T16:29:47.595Z,9.53
2023-01-05T16:32:32.181Z,9.53
2023-01-05T16:35:23.169Z,9.48
2023-01-05T16:38:09.806Z,9.43
2023-01-05T16:40:41.424Z,9.48
2023-01-05T16:43:28.129Z,9.51
2023-01-05T16:45:58.107Z,9.50
2023-01-05T16:48:49.700Z,9.42
2023-01-05T16:51:17.610Z,9.38
2023-01-05T16:53:47.585Z,9.35
2023-01-05T16:56:23.141Z,9.28
2023-01-05T16:58:49.761Z,9.17
2023-01-05T17:01:34.114Z,9.19
2023-01-05T17:04:13.635Z,9.14
2023-01-05T17:06:44.213Z,9.21
2023-01-05T17:09:22.506Z,9.09
2023-01-05T17:11:48.950Z,9.08
2023-01-05T17:14:16.040Z,9.05
2023-01-05T17:16:42.686Z,9.10
2023-01-05T17:19:13.835Z,9.00
2023-01-05T17:21:49.775Z,8.99
2023-01-05T17:24:16.218Z,9.03
2023-01-05T17:26:45.351Z,8.98
2023-01-05T17:29:24.229Z,8.93
2023-01-05T17:31:51.542Z,8.97
2023-01-05T17:34:19.683Z,8.95
2023-01-05T17:36:47.588Z,8.96
2023-01-05T17:39:15.951Z,8.94
2023-01-05T17:41:42.418Z,8.90
2023-01-05T17:44:08.926Z,8.87
2023-01-05T17:46:40.503Z,8.88
2023-01-05T17:49:12.705Z,8.83
2023-01-05T17:51:39.078Z,8.87
2023-01-05T17:54:05.478Z,8.89
2023-01-05T17:58:59.225Z,8.88
2023-01-05T18:01:25.718Z,8.89
2023-01-05T18:03:52.343Z,8.89
2023-01-05T18:06:18.931Z,8.87
2023-01-05T18:08:45.451Z,8.90
2023-01-05T18:11:11.949Z,8.85
2023-01-05T18:13:38.816Z,8.92
2023-01-05T18:16:07.962Z,8.85
2023-01-05T18:21:06.777Z,8.81
2023-01-05T18:23:33.530Z,8.90
2023-01-05T18:26:08.124Z,8.95
2023-01-05T18:28:35.231Z,8.87
2023-01-05T18:31:01.807Z,8.85
2023-01-05T18:33:28.373Z,8.84
2023-01-05T18:38:21.687Z,8.99
2023-01-05T18:40:49.904Z,9.07
2023-01-05T18:43:17.012Z,9.00
2023-01-05T18:45:43.523Z,9.03
2023-01-05T18:48:09.959Z,8.98
2023-01-05T18:50:42.073Z,9.08
2023-01-05T18:53:08.472Z,9.10
2023-01-05T18:55:34.897Z,9.08
2023-01-05T18:58:01.231Z,9.03
2023-01-05T19:00:27.708Z,9.13
2023-01-05T19:02:54.186Z,9.05
2023-01-05T19:05:20.571Z,9.03
2023-01-05T19:07:52.177Z,9.06
2023-01-05T19:10:19.091Z,9.08
2023-01-05T19:12:45.564Z,9.08
2023-01-05T19:15:11.998Z,9.07
2023-01-05T19:17:38.534Z,9.03
2023-01-05T19:20:05.493Z,9.11
2023-01-05T19:22:34.368Z,9.08
2023-01-05T19:25:00.918Z,9.08
2023-01-05T19:27:30.274Z,9.11
2023-01-05T19:29:56.634Z,9.08
2023-01-05T19:32:23.083Z,9.11
2023-01-05T19:34:49.489Z,9.11
2023-01-05T19:37:15.990Z,9.04
2023-01-05T19:39:42.375Z,9.09
2023-01-05T19:42:08.841Z,9.08
2023-01-05T19:44:35.202Z,9.05
2023-01-05T19:47:01.577Z,9.06
2023-01-05T19:49:28.294Z,9.06
2023-01-05T19:51:55.199Z,8.99
2023-01-05T19:54:22.700Z,9.09
2023-01-05T19:56:49.372Z,8.99
2023-01-05T19:59:21.348Z,9.04
2023-01-05T20:01:48.224Z,9.10
2023-01-05T20:04:14.761Z,9.06
2023-01-05T20:06:44.107Z,9.01
2023-01-05T20:09:15.874Z,9.05
2023-01-05T20:11:44.718Z,8.95
2023-01-05T20:14:26.023Z,9.07
2023-01-05T20:16:55.069Z,9.15
2023-01-05T20:19:23.669Z,9.07
2023-01-05T20:21:50.934Z,9.08
2023-01-05T20:24:19.716Z,9.08
2023-01-05T20:26:46.859Z,9.06
2023-01-05T20:29:15.471Z,9.10
2023-01-05T20:31:46.769Z,9.08
2023-01-05T20:34:17.903Z,9.07
2023-01-05T20:36:44.931Z,9.07
2023-01-05T20:39:13.435Z,9.01
2023-01-05T20:41:42.698Z,9.04
2023-01-05T20:44:10.327Z,9.00
2023-01-05T20:46:43.486Z,9.01
2023-01-05T20:49:10.308Z,9.13
2023-01-05T20:51:37.005Z,9.04
2023-01-05T20:54:05.972Z,9.09
2023-01-05T20:56:38.390Z,9.22
2023-01-05T20:59:15.062Z,9.26
2023-01-05T21:01:42.028Z,9.22
2023-01-05T21:04:08.510Z,9.25
2023-01-05T21:06:35.033Z,9.21
2023-01-05T21:09:02.416Z,9.22
2023-01-05T21:11:29.611Z,9.22
2023-01-05T21:13:57.608Z,9.31
2023-01-05T21:16:28.089Z,9.29
2023-01-05T21:18:55.286Z,9.27
2023-01-05T21:21:23.938Z,9.32
2023-01-05T21:23:51.675Z,9.38
2023-01-05T21:26:19.040Z,9.28
2023-01-05T21:28:46.841Z,9.25
2023-01-05T21:31:16.014Z,9.19
2023-01-05T21:33:43.077Z,9.24
2023-01-05T21:36:15.970Z,9.24
2023-01-05T21:39:00.790Z,9.19
2023-01-05T21:41:49.524Z,9.29
2023-01-05T21:44:16.025Z,9.31
2023-01-05T21:46:43.233Z,9.33
2023-01-05T21:49:10.525Z,9.30
2023-01-05T21:51:55.585Z,9.38
2023-01-05T21:54:40.832Z,9.35
2023-01-05T21:57:07.783Z,9.35
2023-01-05T21:59:34.408Z,9.37
2023-01-05T22:02:00.789Z,9.39
2023-01-05T22:04:27.246Z,9.32
2023-01-05T22:06:53.894Z,9.30
2023-01-05T22:09:20.451Z,9.35
2023-01-05T22:11:46.933Z,9.34
2023-01-05T22:14:13.494Z,9.35
2023-01-05T22:16:40.129Z,9.31
2023-01-05T22:19:06.680Z,9.34
2023-01-05T22:21:33.226Z,9.38
2023-01-05T22:23:59.784Z,9.37
2023-01-05T22:26:26.135Z,9.44
2023-01-05T22:28:53.065Z,9.44
2023-01-05T22:31:25.440Z,9.39
2023-01-05T22:33:53.904Z,9.41
2023-01-05T22:36:21.673Z,9.43
2023-01-05T22:38:49.607Z,9.52
2023-01-05T22:41:19.233Z,9.47
2023-01-05T22:43:46.301Z,9.45
2023-01-05T22:46:16.172Z,9.45
2023-01-05T22:48:44.000Z,9.44
2023-01-05T22:51:16.420Z,9.47
2023-01-05T22:53:43.999Z,9.36
2023-01-05T22:56:13.612Z,9.37
2023-01-05T22:58:40.647Z,9.56
2023-01-05T23:01:09.263Z,9.44
2023-01-05T23:03:35.807Z,9.38
2023-01-05T23:06:02.570Z,9.50
2023-01-05T23:08:29.438Z,9.45
2023-01-05T23:11:00.461Z,9.42
2023-01-05T23:13:26.910Z,9.51
2023-01-05T23:15:54.860Z,9.41
2023-01-05T23:18:21.740Z,9.44
2023-01-05T23:21:00.009Z,9.49
2023-01-05T23:23:27.352Z,9.50
2023-01-05T23:25:54.141Z,9.47
2023-01-05T23:28:22.710Z,9.53
2023-01-05T23:30:51.536Z,9.49
2023-01-05T23:33:20.197Z,9.56
2023-01-05T23:35:47.524Z,9.54
2023-01-05T23:38:14.438Z,9.54
2023-01-05T23:40:46.601Z,9.51
2023-01-05T23:43:14.673Z,9.55
2023-01-05T23:45:43.088Z,9.49
2023-01-05T23:48:10.155Z,9.51
2023-01-05T23:50:37.220Z,9.55
2023-01-05T23:53:03.983Z,9.56
2023-01-05T23:55:30.439Z,9.55
2023-01-05T23:57:58.550Z,9.58
